createdAt,value
2018-07-06T00:00:29.319Z,97146.00
2018-07-06T00:03:16.538Z,97153.00
2018-07-06T00:06:04.686Z,97155.00
2018-07-06T00:08:52.524Z,97161.00
2018-07-06T00:11:40.426Z,97162.00
2018-07-06T00:14:27.779Z,97160.00
2018-07-06T00:17:14.159Z,97150.00
2018-07-06T00:20:03.035Z,97161.00
2018-07-06T00:22:50.874Z,97158.00
2018-07-06T00:25:38.429Z,97158.00
2018-07-06T00:28:25.665Z,97154.00
2018-07-06T00:31:13.382Z,97155.00
2018-07-06T00:34:00.041Z,97156.00
2018-07-06T00:36:49.506Z,97150.00
2018-07-06T00:39:36.252Z,97156.00
2018-07-06T00:42:23.096Z,97158.00
2018-07-06T00:45:09.696Z,97161.00
2018-07-06T00:47:57.236Z,97176.00
2018-07-06T00:50:43.776Z,97174.00
2018-07-06T00:53:30.456Z,97191.00
2018-07-06T00:56:11.354Z,97190.00
2018-07-06T00:58:58.470Z,97188.00
2018-07-06T01:01:45.056Z,97188.00
2018-07-06T01:04:33.405Z,97191.00
2018-07-06T01:07:25.328Z,97188.00
2018-07-06T01:10:14.758Z,97194.00
2018-07-06T01:13:03.204Z,97193.00
2018-07-06T01:15:50.589Z,97195.00
2018-07-06T01:18:37.210Z,97193.00
2018-07-06T01:21:24.014Z,97195.00
2018-07-06T01:24:04.671Z,97202.00
2018-07-06T01:26:51.514Z,97199.00
2018-07-06T01:29:38.152Z,97201.00
2018-07-06T01:32:25.136Z,97196.00
2018-07-06T01:35:12.087Z,97204.00
2018-07-06T01:37:59.622Z,97199.00
2018-07-06T01:40:46.595Z,97192.00
2018-07-06T01:43:33.647Z,97193.00
2018-07-06T01:46:20.232Z,97191.00
2018-07-06T01:49:07.168Z,97183.00
2018-07-06T01:51:53.821Z,97200.00
2018-07-06T01:54:40.588Z,97197.00
2018-07-06T01:57:29.219Z,97207.00
2018-07-06T02:00:16.435Z,97202.00
2018-07-06T02:03:03.788Z,97211.00
2018-07-06T02:05:51.117Z,97212.00
2018-07-06T02:08:37.994Z,97212.00
2018-07-06T02:11:20.742Z,97214.00
2018-07-06T02:14:07.272Z,97223.00
2018-07-06T02:16:54.288Z,97216.00
2018-07-06T02:19:40.659Z,97209.00
2018-07-06T02:22:27.578Z,97219.00
2018-07-06T02:25:14.549Z,97217.00
2018-07-06T02:28:01.626Z,97212.00
2018-07-06T02:30:48.162Z,97217.00
2018-07-06T02:33:35.294Z,97218.00
2018-07-06T02:36:16.151Z,97212.00
2018-07-06T02:39:03.557Z,97213.00
2018-07-06T02:41:50.550Z,97215.00
2018-07-06T02:44:39.005Z,97220.00
2018-07-06T02:47:25.660Z,97218.00
2018-07-06T02:50:13.039Z,97218.00
2018-07-06T02:52:59.780Z,97217.00
2018-07-06T02:55:46.721Z,97227.00
2018-07-06T02:58:33.687Z,97229.00
2018-07-06T03:01:23.165Z,97232.00
2018-07-06T03:04:10.698Z,97233.00
2018-07-06T03:06:58.379Z,97238.00
2018-07-06T03:09:45.842Z,97237.00
2018-07-06T03:12:32.907Z,97238.00
2018-07-06T03:15:22.648Z,97238.00
2018-07-06T03:18:10.477Z,97237.00
2018-07-06T03:20:57.127Z,97239.00
2018-07-06T03:23:45.328Z,97244.00
2018-07-06T03:26:32.892Z,97252.00
2018-07-06T03:29:19.602Z,97242.00
2018-07-06T03:32:06.324Z,97245.00
2018-07-06T03:34:47.077Z,97254.00
2018-07-06T03:37:33.959Z,97245.00
2018-07-06T03:40:23.808Z,97243.00
2018-07-06T03:43:10.483Z,97274.00
2018-07-06T03:45:57.368Z,97249.00
2018-07-06T03:48:43.917Z,97256.00
2018-07-06T03:51:25.578Z,97256.00
2018-07-06T03:54:13.107Z,97258.00
2018-07-06T03:56:54.209Z,97258.00
2018-07-06T03:59:43.123Z,97262.00
2018-07-06T04:02:30.192Z,97265.00
2018-07-06T04:05:11.471Z,97269.00
2018-07-06T04:08:00.132Z,97271.00
2018-07-06T04:10:46.811Z,97272.00
2018-07-06T04:13:33.746Z,97279.00
2018-07-06T04:16:30.333Z,97286.00
2018-07-06T04:19:28.442Z,97287.00
2018-07-06T04:22:19.732Z,97282.00
2018-07-06T04:25:14.603Z,97286.00
2018-07-06T04:28:01.419Z,97289.00
2018-07-06T04:30:49.646Z,97297.00
2018-07-06T04:33:36.278Z,97295.00
2018-07-06T04:36:44.040Z,97294.00
2018-07-06T04:40:01.721Z,97288.00
2018-07-06T04:42:52.425Z,97292.00
2018-07-06T04:45:39.284Z,97290.00
2018-07-06T04:48:30.628Z,97293.00
2018-07-06T04:51:17.130Z,97294.00
2018-07-06T04:54:03.635Z,97295.00
2018-07-06T04:56:53.251Z,97300.00
2018-07-06T04:59:46.776Z,97303.00
2018-07-06T05:02:33.387Z,97311.00
2018-07-06T05:05:20.712Z,97304.00
2018-07-06T05:08:01.858Z,97312.00
2018-07-06T05:10:53.019Z,97307.00
2018-07-06T05:13:59.736Z,97319.00
2018-07-06T05:16:57.356Z,97323.00
2018-07-06T05:19:45.356Z,97321.00
2018-07-06T05:22:46.122Z,97336.00
2018-07-06T05:25:33.164Z,97331.00
2018-07-06T05:28:14.317Z,97327.00
2018-07-06T05:31:04.291Z,97334.00
2018-07-06T05:33:52.161Z,97336.00
2018-07-06T05:36:39.251Z,97339.00
2018-07-06T05:39:30.620Z,97347.00
2018-07-06T05:42:18.630Z,97346.00
2018-07-06T05:45:05.645Z,97355.00
2018-07-06T05:50:54.689Z,97360.00
2018-07-06T05:53:44.127Z,97354.00
2018-07-06T05:56:34.564Z,97363.00
2018-07-06T05:59:20.948Z,97367.00
2018-07-06T06:02:10.273Z,97366.00
2018-07-06T06:08:00.486Z,97362.00
2018-07-06T06:10:30.567Z,97364.00
2018-07-06T06:13:01.717Z,97364.00
2018-07-06T06:15:31.544Z,97367.00
2018-07-06T06:18:02.719Z,97371.00
2018-07-06T06:20:39.457Z,97372.00
2018-07-06T06:23:11.203Z,97371.00
2018-07-06T06:25:44.589Z,97381.00
2018-07-06T06:28:14.872Z,97382.00
2018-07-06T06:30:46.454Z,97391.00
2018-07-06T06:33:16.881Z,97398.00
2018-07-06T06:35:47.410Z,97395.00
2018-07-06T06:38:17.832Z,97394.00
2018-07-06T06:40:50.145Z,97397.00
2018-07-06T06:43:20.806Z,97396.00
2018-07-06T06:45:52.533Z,97406.00
2018-07-06T06:48:24.648Z,97403.00
2018-07-06T06:50:55.539Z,97395.00
2018-07-06T06:53:26.271Z,97403.00
2018-07-06T06:55:58.395Z,97400.00
2018-07-06T06:58:29.283Z,97403.00
2018-07-06T07:01:02.350Z,97408.00
2018-07-06T07:03:34.675Z,97413.00
2018-07-06T07:06:11.218Z,97404.00
2018-07-06T07:08:58.079Z,97416.00
2018-07-06T07:11:35.684Z,97405.00
2018-07-06T07:14:08.659Z,97415.00
2018-07-06T07:16:44.584Z,97404.00
2018-07-06T07:19:21.416Z,97409.00
2018-07-06T07:22:11.386Z,97416.00
2018-07-06T07:24:42.424Z,97423.00
2018-07-06T07:27:13.364Z,97418.00
2018-07-06T07:29:52.235Z,97410.00
2018-07-06T07:32:46.906Z,97421.00
2018-07-06T07:35:23.204Z,97417.00
2018-07-06T07:37:54.224Z,97406.00
2018-07-06T07:46:44.431Z,97419.00
2018-07-06T07:49:15.528Z,97423.00
2018-07-06T07:52:08.512Z,97416.00
2018-07-06T07:54:50.165Z,97409.00
2018-07-06T07:57:22.075Z,97412.00
2018-07-06T08:00:09.218Z,97430.00
2018-07-06T08:02:40.165Z,97422.00
2018-07-06T08:14:10.035Z,97436.00
2018-07-06T08:16:39.968Z,97440.00
2018-07-06T08:19:11.873Z,97435.00
2018-07-06T08:21:43.649Z,97443.00
2018-07-06T08:24:14.504Z,97452.00
2018-07-06T08:26:47.694Z,97447.00
2018-07-06T08:29:18.237Z,97454.00
2018-07-06T08:31:48.073Z,97456.00
2018-07-06T08:34:38.905Z,97463.00
2018-07-06T08:37:36.184Z,97463.00
2018-07-06T08:40:07.501Z,97470.00
2018-07-06T08:42:39.737Z,97477.00
2018-07-06T08:45:12.065Z,97473.00
2018-07-06T08:47:47.368Z,97476.00
2018-07-06T08:50:18.148Z,97472.00
2018-07-06T08:52:55.438Z,97473.00
2018-07-06T08:55:27.201Z,97475.00
2018-07-06T08:58:03.450Z,97467.00
2018-07-06T09:00:32.826Z,97478.00
2018-07-06T09:03:12.476Z,97479.00
2018-07-06T09:05:42.846Z,97478.00
2018-07-06T09:08:19.374Z,97483.00
2018-07-06T09:10:55.468Z,97481.00
2018-07-06T09:13:34.446Z,97492.00
2018-07-06T09:16:17.465Z,97481.00
2018-07-06T09:18:59.336Z,97486.00
2018-07-06T09:21:34.141Z,97486.00
2018-07-06T09:24:06.317Z,97483.00
2018-07-06T09:26:37.202Z,97493.00
2018-07-06T09:29:07.979Z,97498.00
2018-07-06T09:31:39.305Z,97488.00
2018-07-06T09:34:09.993Z,97493.00
2018-07-06T09:36:41.678Z,97491.00
2018-07-06T09:39:13.525Z,97486.00
2018-07-06T09:41:45.289Z,97490.00
2018-07-06T09:44:16.319Z,97488.00
2018-07-06T09:46:46.114Z,97492.00
2018-07-06T09:49:16.733Z,97486.00
2018-07-06T09:51:47.646Z,97478.00
2018-07-06T09:54:18.441Z,97483.00
2018-07-06T09:56:50.223Z,97491.00
2018-07-06T09:59:25.504Z,97488.00
2018-07-06T10:01:59.938Z,97495.00
2018-07-06T10:04:31.564Z,97483.00
2018-07-06T10:07:02.314Z,97487.00
2018-07-06T10:09:35.311Z,97483.00
2018-07-06T10:12:06.225Z,97492.00
2018-07-06T10:14:52.255Z,97479.00
2018-07-06T10:17:23.404Z,97482.00
2018-07-06T10:19:56.739Z,97479.00
2018-07-06T10:22:27.460Z,97491.00
2018-07-06T10:24:56.917Z,97493.00
2018-07-06T10:27:38.448Z,97485.00
2018-07-06T10:30:25.319Z,97501.00
2018-07-06T10:32:59.904Z,97497.00
2018-07-06T10:35:30.360Z,97502.00
2018-07-06T10:38:04.913Z,97494.00
2018-07-06T10:40:45.702Z,97502.00
2018-07-06T10:43:30.546Z,97512.00
2018-07-06T10:46:03.314Z,97512.00
2018-07-06T10:48:33.234Z,97496.00
2018-07-06T10:51:07.603Z,97500.00
2018-07-06T10:53:39.731Z,97503.00
2018-07-06T10:56:09.689Z,97502.00
2018-07-06T10:58:39.989Z,97500.00
2018-07-06T11:01:11.185Z,97502.00
2018-07-06T11:03:42.334Z,97503.00
2018-07-06T11:06:13.928Z,97502.00
2018-07-06T11:08:45.331Z,97509.00
2018-07-06T11:11:23.655Z,97493.00
2018-07-06T11:13:56.692Z,97514.00
2018-07-06T11:16:26.810Z,97497.00
2018-07-06T11:19:03.411Z,97502.00
2018-07-06T11:21:33.422Z,97501.00
2018-07-06T11:24:03.221Z,97500.00
2018-07-06T11:26:35.090Z,97515.00
2018-07-06T11:29:07.606Z,97514.00
2018-07-06T11:31:40.203Z,97514.00
2018-07-06T11:34:17.372Z,97510.00
2018-07-06T11:36:51.189Z,97498.00
2018-07-06T11:39:27.384Z,97498.00
2018-07-06T11:41:59.140Z,97500.00
2018-07-06T11:44:32.685Z,97509.00
2018-07-06T11:47:03.226Z,97518.00
2018-07-06T11:49:33.948Z,97509.00
2018-07-06T11:52:11.952Z,97510.00
2018-07-06T11:54:42.441Z,97504.00
2018-07-06T11:57:14.321Z,97509.00
2018-07-06T11:59:45.224Z,97514.00
2018-07-06T12:04:46.586Z,97520.00
2018-07-06T12:07:18.089Z,97516.00
2018-07-06T12:09:51.319Z,97516.00
2018-07-06T12:12:22.303Z,97515.00
2018-07-06T12:14:55.663Z,97513.00
2018-07-06T12:17:29.907Z,97520.00
2018-07-06T12:20:00.357Z,97513.00
2018-07-06T12:22:31.783Z,97516.00
2018-07-06T12:25:03.977Z,97518.00
2018-07-06T12:27:35.352Z,97518.00
2018-07-06T12:30:08.401Z,97516.00
2018-07-06T12:32:43.246Z,97514.00
2018-07-06T12:35:15.697Z,97517.00
2018-07-06T12:37:50.595Z,97526.00
2018-07-06T12:40:24.412Z,97523.00
2018-07-06T12:42:54.969Z,97518.00
2018-07-06T12:45:28.545Z,97527.00
2018-07-06T12:48:01.301Z,97522.00
2018-07-06T12:50:31.508Z,97521.00
2018-07-06T12:53:04.419Z,97522.00
2018-07-06T12:55:37.697Z,97527.00
2018-07-06T12:58:07.662Z,97523.00
2018-07-06T13:00:39.319Z,97533.00
2018-07-06T13:03:24.228Z,97530.00
2018-07-06T13:05:58.464Z,97530.00
2018-07-06T13:08:30.497Z,97526.00
2018-07-06T13:11:01.563Z,97521.00
2018-07-06T13:13:32.204Z,97529.00
2018-07-06T13:16:05.712Z,97533.00
2018-07-06T13:18:37.430Z,97533.00
2018-07-06T13:21:12.705Z,97533.00
2018-07-06T13:23:43.175Z,97527.00
2018-07-06T13:26:13.681Z,97528.00
2018-07-06T13:28:46.800Z,97528.00
2018-07-06T13:31:17.603Z,97538.00
2018-07-06T13:33:47.428Z,97534.00
2018-07-06T13:37:21.270Z,97529.00
2018-07-06T13:39:54.787Z,97539.00
2018-07-06T13:42:24.600Z,97530.00
2018-07-06T13:44:57.326Z,97533.00
2018-07-06T13:50:17.278Z,97528.00
2018-07-06T13:52:56.651Z,97521.00
2018-07-06T13:55:31.835Z,97515.00
2018-07-06T13:58:27.435Z,97524.00
2018-07-06T14:01:40.372Z,97523.00
2018-07-06T14:04:13.455Z,97524.00
2018-07-06T14:09:38.910Z,97518.00
2018-07-06T14:17:29.409Z,97519.00
2018-07-06T14:20:03.759Z,97529.00
2018-07-06T14:22:39.699Z,97527.00
2018-07-06T14:25:16.854Z,97525.00
2018-07-06T14:27:52.428Z,97520.00
2018-07-06T14:30:33.958Z,97524.00
2018-07-06T14:33:12.109Z,97523.00
2018-07-06T14:35:48.977Z,97522.00
2018-07-06T14:38:24.763Z,97505.00
2018-07-06T14:41:16.443Z,97509.00
2018-07-06T14:43:46.716Z,97501.00
2018-07-06T14:46:17.094Z,97498.00
2018-07-06T14:48:49.681Z,97515.00
2018-07-06T14:51:20.872Z,97505.00
2018-07-06T14:53:56.032Z,97503.00
2018-07-06T14:56:47.404Z,97493.00
2018-07-06T14:59:24.972Z,97500.00
2018-07-06T15:01:56.196Z,97493.00
2018-07-06T15:04:26.869Z,97488.00
2018-07-06T15:06:57.089Z,97493.00
2018-07-06T15:09:35.638Z,97484.00
2018-07-06T15:15:00.192Z,97519.00
2018-07-06T15:17:33.422Z,97505.00
2018-07-06T15:20:23.605Z,97497.00
2018-07-06T15:23:15.507Z,97497.00
2018-07-06T15:25:46.853Z,97500.00
2018-07-06T15:28:18.456Z,97496.00
2018-07-06T15:30:52.170Z,97498.00
2018-07-06T15:33:22.259Z,97502.00
2018-07-06T15:35:56.359Z,97509.00
2018-07-06T15:41:12.063Z,97509.00
2018-07-06T15:43:51.471Z,97504.00
2018-07-06T15:46:25.789Z,97501.00
2018-07-06T15:49:07.585Z,97510.00
2018-07-06T15:51:39.914Z,97509.00
2018-07-06T15:54:10.654Z,97504.00
2018-07-06T15:56:41.873Z,97517.00
2018-07-06T15:59:14.830Z,97514.00
2018-07-06T16:01:49.543Z,97499.00
2018-07-06T16:04:29.410Z,97514.00
2018-07-06T16:07:01.558Z,97498.00
2018-07-06T16:09:34.000Z,97502.00
2018-07-06T16:12:09.395Z,97504.00
2018-07-06T16:14:41.413Z,97500.00
2018-07-06T16:17:14.310Z,97499.00
2018-07-06T16:19:48.178Z,97499.00
2018-07-06T16:22:19.496Z,97505.00
2018-07-06T16:24:51.803Z,97515.00
2018-07-06T16:27:32.227Z,97517.00
2018-07-06T16:30:02.739Z,97516.00
2018-07-06T16:39:43.879Z,97521.00
2018-07-06T16:42:14.391Z,97523.00
2018-07-06T16:44:45.195Z,97527.00
2018-07-06T16:47:15.376Z,97526.00
2018-07-06T16:49:47.168Z,97531.00
2018-07-06T16:52:19.643Z,97522.00
2018-07-06T16:54:58.843Z,97524.00
2018-07-06T16:57:36.194Z,97527.00
2018-07-06T17:00:08.745Z,97522.00
2018-07-06T17:02:39.397Z,97532.00
2018-07-06T17:05:15.296Z,97528.00
2018-07-06T17:07:51.137Z,97530.00
2018-07-06T17:10:23.173Z,97541.00
2018-07-06T17:12:54.238Z,97540.00
2018-07-06T17:15:31.816Z,97545.00
2018-07-06T17:18:08.201Z,97544.00
2018-07-06T17:20:38.527Z,97549.00
2018-07-06T17:23:15.837Z,97545.00
2018-07-06T17:26:02.450Z,97547.00
2018-07-06T17:28:42.681Z,97549.00
2018-07-06T17:31:49.274Z,97557.00
2018-07-06T17:34:25.489Z,97552.00
2018-07-06T17:39:38.701Z,97531.00
2018-07-06T17:42:56.203Z,97568.00
2018-07-06T17:45:40.723Z,97566.00
2018-07-06T17:48:20.148Z,97562.00
2018-07-06T17:50:52.689Z,97567.00
2018-07-06T17:53:26.002Z,97571.00
2018-07-06T17:58:36.664Z,97578.00
2018-07-06T18:01:08.478Z,97582.00
2018-07-06T18:03:42.109Z,97581.00
2018-07-06T18:06:19.938Z,97583.00
2018-07-06T18:09:02.252Z,97587.00
2018-07-06T18:11:39.275Z,97593.00
2018-07-06T18:14:12.239Z,97594.00
2018-07-06T18:17:10.996Z,97595.00
2018-07-06T18:19:53.607Z,97596.00
2018-07-06T18:22:32.316Z,97595.00
2018-07-06T18:25:30.418Z,97600.00
2018-07-06T18:28:25.179Z,97597.00
2018-07-06T18:31:01.560Z,97607.00
2018-07-06T18:33:42.633Z,97598.00
2018-07-06T18:36:14.394Z,97608.00
2018-07-06T18:38:46.338Z,97604.00
2018-07-06T18:41:21.327Z,97611.00
2018-07-06T18:43:53.045Z,97609.00
2018-07-06T18:46:24.924Z,97611.00
2018-07-06T18:48:55.322Z,97611.00
2018-07-06T18:51:41.888Z,97620.00
2018-07-06T18:54:14.377Z,97613.00
2018-07-06T18:56:47.710Z,97615.00
2018-07-06T18:59:32.780Z,97621.00
2018-07-06T19:02:06.809Z,97620.00
2018-07-06T19:04:40.026Z,97622.00
2018-07-06T19:07:12.481Z,97610.00
2018-07-06T19:09:47.340Z,97625.00
2018-07-06T19:12:20.485Z,97627.00
2018-07-06T19:14:52.449Z,97631.00
2018-07-06T19:17:30.470Z,97629.00
2018-07-06T19:20:05.204Z,97638.00
2018-07-06T19:22:38.496Z,97637.00
2018-07-06T19:25:11.202Z,97637.00
2018-07-06T19:27:41.597Z,97644.00
2018-07-06T19:30:13.594Z,97665.00
2018-07-06T19:32:44.494Z,97655.00
2018-07-06T19:35:17.191Z,97650.00
2018-07-06T19:37:48.093Z,97655.00
2018-07-06T19:40:19.175Z,97656.00
2018-07-06T19:42:50.431Z,97656.00
2018-07-06T19:48:39.298Z,97665.00
2018-07-06T19:51:11.696Z,97672.00
2018-07-06T19:53:43.597Z,97681.00
2018-07-06T19:56:14.656Z,97679.00
2018-07-06T19:58:48.325Z,97676.00
2018-07-06T20:01:26.362Z,97681.00
2018-07-06T20:04:05.380Z,97680.00
2018-07-06T20:06:39.732Z,97682.00
2018-07-06T20:12:30.834Z,97683.00
2018-07-06T20:15:04.556Z,97688.00
2018-07-06T20:17:35.502Z,97690.00
2018-07-06T20:20:22.579Z,97690.00
2018-07-06T20:26:00.096Z,97693.00
2018-07-06T20:28:31.730Z,97691.00
2018-07-06T20:31:02.686Z,97694.00
2018-07-06T20:33:33.058Z,97695.00
2018-07-06T20:36:04.997Z,97698.00
2018-07-06T20:38:57.220Z,97698.00
2018-07-06T20:41:29.429Z,97689.00
2018-07-06T20:44:05.858Z,97692.00
2018-07-06T20:46:41.622Z,97692.00
2018-07-06T20:49:14.358Z,97697.00
2018-07-06T20:51:48.645Z,97701.00
2018-07-06T20:57:45.907Z,97701.00
2018-07-06T21:00:22.640Z,97701.00
2018-07-06T21:02:54.598Z,97709.00
2018-07-06T21:05:29.338Z,97705.00
2018-07-06T21:08:05.493Z,97707.00
2018-07-06T21:10:43.230Z,97697.00
2018-07-06T21:13:15.853Z,97702.00
2018-07-06T21:15:47.475Z,97697.00
2018-07-06T21:18:22.798Z,97708.00
2018-07-06T21:20:58.086Z,97708.00
2018-07-06T21:23:33.037Z,97713.00
2018-07-06T21:26:05.179Z,97712.00
2018-07-06T21:28:38.235Z,97706.00
2018-07-06T21:31:14.875Z,97708.00
2018-07-06T21:33:52.796Z,97708.00
2018-07-06T21:36:27.410Z,97717.00
2018-07-06T21:39:00.728Z,97710.00
2018-07-06T21:41:36.086Z,97714.00
2018-07-06T21:44:09.160Z,97715.00
2018-07-06T21:46:41.198Z,97715.00
2018-07-06T21:49:12.357Z,97711.00
2018-07-06T21:51:59.417Z,97711.00
2018-07-06T21:54:35.522Z,97698.00
2018-07-06T21:57:10.648Z,97715.00
2018-07-06T21:59:43.871Z,97715.00
2018-07-06T22:02:17.237Z,97714.00
2018-07-06T22:04:48.557Z,97733.00
2018-07-06T22:07:22.558Z,97747.00
2018-07-06T22:09:55.270Z,97735.00
2018-07-06T22:12:30.378Z,97739.00
2018-07-06T22:15:02.542Z,97740.00
2018-07-06T22:17:35.528Z,97734.00
2018-07-06T22:20:06.318Z,97735.00
2018-07-06T22:22:40.761Z,97737.00
2018-07-06T22:25:11.881Z,97739.00
2018-07-06T22:27:41.893Z,97737.00
2018-07-06T22:30:13.167Z,97738.00
2018-07-06T22:32:48.475Z,97741.00
2018-07-06T22:35:20.371Z,97741.00
2018-07-06T22:37:57.281Z,97734.00
2018-07-06T22:40:28.997Z,97731.00
2018-07-06T22:43:00.687Z,97733.00
2018-07-06T22:45:36.572Z,97733.00
2018-07-06T22:48:09.545Z,97740.00
2018-07-06T22:50:41.213Z,97733.00
2018-07-06T22:53:13.104Z,97739.00
2018-07-06T22:55:51.680Z,97741.00
2018-07-06T22:58:30.092Z,97748.00
2018-07-06T23:01:02.375Z,97752.00
2018-07-06T23:03:38.567Z,97745.00
2018-07-06T23:06:33.760Z,97745.00
2018-07-06T23:09:21.385Z,97742.00
2018-07-06T23:11:57.974Z,97741.00
2018-07-06T23:14:28.823Z,97737.00
2018-07-06T23:17:00.275Z,97742.00
2018-07-06T23:19:33.417Z,97740.00
2018-07-06T23:22:03.614Z,97746.00
2018-07-06T23:24:33.793Z,97747.00
2018-07-06T23:27:04.625Z,97755.00
2018-07-06T23:29:35.348Z,97741.00
2018-07-06T23:32:06.037Z,97741.00
2018-07-06T23:34:36.188Z,97741.00
2018-07-06T23:37:07.541Z,97740.00
2018-07-06T23:39:39.946Z,97752.00
2018-07-06T23:42:10.474Z,97745.00
2018-07-06T23:44:40.349Z,97748.00
2018-07-06T23:47:10.304Z,97762.00
2018-07-06T23:49:39.977Z,97756.00
2018-07-06T23:52:10.218Z,97769.00
2018-07-06T23:54:40.414Z,97752.00
2018-07-06T23:57:10.562Z,97766.00
2018-07-06T23:59:41.181Z,97767.00
